Time;durP1;ratioP1;P1;durP2;ratioP2;P2;SDS_P1;SDS_P2;PMS_P1;PMS_P2;Temp;Humidity;BMP_temperature;BMP_pressure;BME280_temperature;BME280_humidity;BME280_pressure;Samples;Min_cycle;Max_cycle;Signal;HPM_P1;HPM_P2
2023/05/17 00:01:03;;;;;;;6.55;2.60;;;;;;;22.42;50.51;101235.78;5031694;28;20363;-45
2023/05/17 00:03:29;;;;;;;6.65;3.17;;;;;;;22.08;51.88;101233.63;5044646;28;20029;-43
2023/05/17 00:05:55;;;;;;;8.52;3.08;;;;;;;21.95;52.45;101243.16;5049189;28;20036;-42
2023/05/17 00:08:21;;;;;;;6.78;2.83;;;;;;;22.01;53.23;101230.34;5032805;28;20371;-46
2023/05/17 00:10:47;;;;;;;6.35;3.17;;;;;;;21.97;52.81;101235.53;5045105;28;20037;-43
2023/05/17 00:13:14;;;;;;;9.40;3.17;;;;;;;21.82;53.08;101228.19;5037604;28;20033;-43
2023/05/17 00:15:40;;;;;;;10.45;3.30;;;;;;;21.55;54.71;101233.03;5047671;28;20496;-43
2023/05/17 00:18:06;;;;;;;10.77;3.90;;;;;;;21.37;54.83;101233.53;5050464;28;20021;-44
2023/05/17 00:20:33;;;;;;;12.40;4.05;;;;;;;21.20;56.36;101237.25;5049993;28;20070;-44
2023/05/17 00:22:59;;;;;;;9.70;3.70;;;;;;;21.11;56.65;101233.44;5036978;28;20040;-44
2023/05/17 00:25:25;;;;;;;6.80;3.33;;;;;;;21.12;56.08;101235.06;5036929;28;20642;-43
2023/05/17 00:27:52;;;;;;;7.88;3.70;;;;;;;20.56;57.96;101232.09;5050703;28;20094;-43
2023/05/17 00:30:18;;;;;;;9.82;3.47;;;;;;;20.50;57.60;101224.97;5039474;28;20121;-44
2023/05/17 00:32:45;;;;;;;11.75;3.67;;;;;;;20.42;58.72;101228.97;5051472;28;20386;-44
2023/05/17 00:35:12;;;;;;;12.35;3.95;;;;;;;20.04;59.82;101230.88;5050332;28;20087;-45
2023/05/17 00:37:38;;;;;;;10.02;3.42;;;;;;;20.00;59.20;101220.78;5037571;28;20319;-43
2023/05/17 00:40:05;;;;;;;9.40;3.90;;;;;;;19.65;60.41;101230.25;5043080;28;20025;-42
2023/05/17 00:42:31;;;;;;;9.80;3.40;;;;;;;19.87;61.31;101223.91;5048976;28;20056;-42
2023/05/17 00:44:57;;;;;;;9.43;3.80;;;;;;;20.10;59.81;101234.47;5049037;28;20032;-43
2023/05/17 00:47:23;;;;;;;12.90;4.22;;;;;;;19.63;61.17;101237.84;5051331;28;20247;-46
2023/05/17 00:49:50;;;;;;;11.95;3.92;;;;;;;19.68;61.61;101237.06;5050897;28;20508;-43
2023/05/17 00:52:16;;;;;;;9.55;4.25;;;;;;;19.27;62.44;101233.91;5051135;28;20021;-44
2023/05/17 00:54:44;;;;;;;12.35;4.43;;;;;;;19.19;63.55;101237.88;5041086;28;20505;-45
2023/05/17 00:57:10;;;;;;;11.27;3.92;;;;;;;18.92;64.45;101243.22;5039152;28;20021;-43
2023/05/17 00:59:38;;;;;;;18.63;5.20;;;;;;;19.00;64.19;101244.69;5031215;28;20038;-43
2023/05/17 01:02:05;;;;;;;10.10;3.72;;;;;;;18.75;64.90;101247.06;5019537;28;20037;-46
2023/05/17 01:04:31;;;;;;;12.15;3.90;;;;;;;18.69;64.92;101247.00;5031818;28;20022;-42
2023/05/17 01:06:58;;;;;;;11.70;4.07;;;;;;;18.67;65.42;101241.00;5050709;28;20029;-45
2023/05/17 01:09:24;;;;;;;7.90;3.67;;;;;;;18.62;65.97;101251.75;5051203;28;20025;-44
2023/05/17 01:12:00;;;;;;;11.32;4.22;;;;;;;18.62;66.17;101245.50;5049946;28;20021;-44
2023/05/17 01:15:03;;;;;;;10.57;3.70;;;;;;;18.34;66.88;101241.03;5036755;28;20048;-46
2023/05/17 01:17:51;;;;;;;8.18;3.15;;;;;;;18.30;67.21;101237.16;5045681;28;20028;-43
2023/05/17 01:20:40;;;;;;;10.63;4.28;;;;;;;18.36;67.71;101239.72;5034969;28;20037;-45
2023/05/17 01:23:10;;;;;;;10.43;3.80;;;;;;;18.46;66.72;101239.88;5053402;28;20029;-46
2023/05/17 01:26:11;;;;;;;9.40;3.88;;;;;;;17.87;68.42;101235.94;5053797;28;20485;-44
2023/05/17 01:28:39;;;;;;;10.18;4.07;;;;;;;17.73;69.34;101234.63;5017354;28;20405;-47
2023/05/17 01:31:07;;;;;;;9.98;3.97;;;;;;;17.98;68.65;101242.34;5054849;28;20124;-45
2023/05/17 01:33:34;;;;;;;9.00;4.22;;;;;;;17.61;69.81;101243.59;5041127;28;20032;-44
2023/05/17 01:36:01;;;;;;;10.30;4.65;;;;;;;17.64;69.70;101244.97;5034994;28;20148;-46
2023/05/17 01:38:27;;;;;;;12.52;4.32;;;;;;;17.71;69.26;101237.50;5034670;28;20104;-45
2023/05/17 01:41:11;;;;;;;11.57;4.65;;;;;;;17.52;69.69;101236.09;5034771;28;20060;-46
2023/05/17 01:43:50;;;;;;;11.10;4.75;;;;;;;17.39;69.98;101231.81;5034926;28;20034;-45
2023/05/17 01:46:32;;;;;;;13.93;5.00;;;;;;;17.19;70.77;101232.22;5042118;28;20029;-45
2023/05/17 01:49:16;;;;;;;7.68;4.05;;;;;;;16.79;72.25;101234.91;5016643;28;20410;-44
2023/05/17 01:51:57;;;;;;;13.47;4.67;;;;;;;16.83;72.57;101231.50;5034489;28;20508;-45
2023/05/17 01:54:35;;;;;;;13.18;4.78;;;;;;;16.83;72.07;101225.25;5033806;28;20473;-45
2023/05/17 01:57:06;;;;;;;10.75;4.47;;;;;;;16.69;73.16;101221.13;5033653;28;20068;-45
2023/05/17 01:59:34;;;;;;;10.52;4.53;;;;;;;16.60;73.30;101224.22;5034697;28;20057;-45
2023/05/17 02:02:08;;;;;;;9.32;4.35;;;;;;;16.77;72.79;101223.50;5033979;28;20029;-45
2023/05/17 02:04:37;;;;;;;13.15;5.25;;;;;;;16.45;73.64;101223.84;5034253;28;20028;-47
2023/05/17 02:07:04;;;;;;;8.45;4.82;;;;;;;16.67;73.23;101228.66;5033639;28;20037;-44
2023/05/17 02:09:30;;;;;;;7.72;4.13;;;;;;;16.53;72.87;101228.88;5052756;28;20044;-48
2023/05/17 02:11:57;;;;;;;10.00;4.00;;;;;;;16.71;72.65;101230.69;5049823;28;20416;-45
2023/05/17 02:14:23;;;;;;;8.82;4.30;;;;;;;16.90;72.10;101239.47;5033745;28;20029;-43
2023/05/17 02:16:49;;;;;;;7.28;4.10;;;;;;;16.95;72.16;101239.56;5033528;28;20029;-45
2023/05/17 02:19:15;;;;;;;7.47;3.97;;;;;;;17.22;71.17;101231.75;5034604;28;20032;-44
2023/05/17 02:21:42;;;;;;;8.40;4.03;;;;;;;17.47;69.77;101236.81;5034201;28;20025;-45
2023/05/17 02:24:08;;;;;;;7.95;3.92;;;;;;;17.44;69.66;101231.91;5033917;28;20416;-45
2023/05/17 02:26:35;;;;;;;6.80;3.78;;;;;;;17.40;69.22;101226.13;5033195;28;20099;-45
2023/05/17 02:29:01;;;;;;;8.40;3.97;;;;;;;17.39;69.12;101231.81;5055074;28;20259;-44
2023/05/17 02:31:28;;;;;;;9.95;4.38;;;;;;;16.76;71.87;101222.66;5053384;28;20025;-45
2023/05/17 02:33:54;;;;;;;7.35;3.67;;;;;;;16.93;71.35;101230.88;5048182;28;20048;-45
2023/05/17 02:36:20;;;;;;;8.95;3.70;;;;;;;16.45;72.79;101229.25;5046533;28;20021;-45
2023/05/17 02:38:47;;;;;;;10.38;4.63;;;;;;;16.32;74.36;101232.19;5039368;28;20470;-45
2023/05/17 02:41:13;;;;;;;6.38;4.25;;;;;;;16.02;74.82;101235.81;5041321;28;20025;-45
2023/05/17 02:43:39;;;;;;;9.07;4.20;;;;;;;16.08;74.59;101237.56;5054096;28;20041;-43
2023/05/17 02:46:06;;;;;;;10.52;4.75;;;;;;;15.97;75.27;101241.06;5000113;28;20033;-45
2023/05/17 02:48:32;;;;;;;10.43;4.80;;;;;;;15.90;75.67;101244.94;5044337;28;20037;-44
2023/05/17 02:50:58;;;;;;;10.57;4.80;;;;;;;15.84;75.79;101241.28;5031310;28;20029;-44
2023/05/17 02:53:24;;;;;;;9.23;4.30;;;;;;;15.20;78.70;101256.25;5052611;28;20071;-44
2023/05/17 02:55:51;;;;;;;10.38;4.63;;;;;;;15.19;79.65;101254.59;5047851;28;20040;-47
2023/05/17 02:58:17;;;;;;;13.65;5.15;;;;;;;15.05;80.35;101253.94;5033508;28;20560;-44
2023/05/17 03:00:46;;;;;;;19.17;6.13;;;;;;;14.77;82.11;101262.56;5038337;28;20033;-45
2023/05/17 03:03:12;;;;;;;9.52;4.75;;;;;;;14.98;81.02;101270.19;5052867;28;20032;-47
2023/05/17 03:05:39;;;;;;;7.90;4.97;;;;;;;14.81;81.50;101274.50;5050413;28;20048;-44
2023/05/17 03:08:05;;;;;;;11.80;5.43;;;;;;;14.61;82.91;101271.22;5041093;28;20029;-44
2023/05/17 03:10:31;;;;;;;13.13;5.95;;;;;;;14.38;83.85;101269.94;5032887;28;20021;-43
2023/05/17 03:12:57;;;;;;;10.65;5.88;;;;;;;14.19;84.69;101277.13;5040652;28;20029;-44
2023/05/17 03:15:25;;;;;;;8.02;4.38;;;;;;;14.42;84.45;101270.31;5032673;28;20500;-45
2023/05/17 03:17:52;;;;;;;10.38;5.25;;;;;;;14.28;85.12;101269.59;5032407;28;20030;-47
2023/05/17 03:20:18;;;;;;;8.00;5.15;;;;;;;14.16;85.38;101274.06;5032758;28;20128;-46
2023/05/17 03:22:44;;;;;;;13.27;5.28;;;;;;;14.30;84.58;101277.47;5032605;28;20053;-43
2023/05/17 03:25:10;;;;;;;10.77;4.95;;;;;;;14.18;85.14;101282.72;5040412;28;20768;-44
2023/05/17 03:27:37;;;;;;;12.10;4.57;;;;;;;14.35;84.00;101275.75;5039321;28;20033;-44
2023/05/17 03:30:03;;;;;;;7.90;4.97;;;;;;;14.27;84.15;101276.03;5039612;28;20029;-46
2023/05/17 03:32:29;;;;;;;8.65;4.82;;;;;;;14.27;84.24;101276.03;5032040;28;20470;-45
2023/05/17 03:34:58;;;;;;;8.75;3.97;;;;;;;14.24;84.55;101279.97;5040165;28;20041;-47
2023/05/17 03:37:25;;;;;;;9.23;4.20;;;;;;;14.00;85.67;101295.06;5038672;28;20021;-45
2023/05/17 03:39:51;;;;;;;11.10;5.50;;;;;;;13.91;86.58;101292.84;5034953;28;20517;-45
2023/05/17 03:42:17;;;;;;;10.73;4.80;;;;;;;13.84;86.50;101286.69;5031829;28;20490;-45
2023/05/17 03:44:43;;;;;;;13.00;4.78;;;;;;;14.02;85.59;101288.66;5041545;28;20040;-46
2023/05/17 03:47:10;;;;;;;14.98;6.35;;;;;;;13.87;86.16;101289.75;5052288;28;20105;-46
2023/05/17 03:49:36;;;;;;;12.13;6.40;;;;;;;13.94;86.21;101285.19;5036281;28;20124;-45
2023/05/17 03:52:03;;;;;;;10.88;5.55;;;;;;;13.86;86.26;101288.13;5045165;28;20032;-46
2023/05/17 03:54:29;;;;;;;9.32;4.88;;;;;;;13.87;85.88;101295.13;5072293;28;20031;-45
2023/05/17 03:56:56;;;;;;;11.60;5.68;;;;;;;13.90;85.97;101302.78;5072274;28;20028;-43
2023/05/17 03:59:22;;;;;;;6.35;4.47;;;;;;;13.98;86.10;101304.41;5072022;28;20028;-45
2023/05/17 04:01:48;;;;;;;15.07;6.40;;;;;;;13.97;86.34;101318.91;5071879;28;20032;-44
2023/05/17 04:04:14;;;;;;;8.38;4.93;;;;;;;13.60;88.60;101324.09;5064773;28;20033;-46
2023/05/17 04:06:41;;;;;;;7.93;5.05;;;;;;;13.57;88.97;101321.81;5031697;28;20025;-45
2023/05/17 04:09:09;;;;;;;12.15;5.15;;;;;;;13.63;88.67;101320.13;5032953;28;20025;-48
2023/05/17 04:11:36;;;;;;;9.38;5.35;;;;;;;13.55;88.83;101317.66;5051796;28;20061;-46
2023/05/17 04:14:04;;;;;;;10.00;5.22;;;;;;;13.40;89.31;101331.41;5051186;28;20025;-45
2023/05/17 04:16:30;;;;;;;14.48;5.65;;;;;;;13.46;88.71;101335.91;5051673;28;20049;-47
2023/05/17 04:18:58;;;;;;;9.68;4.38;;;;;;;13.47;88.73;101327.63;5051115;28;20029;-45
2023/05/17 04:21:25;;;;;;;9.60;5.50;;;;;;;13.42;88.96;101329.31;5051644;28;20384;-46
2023/05/17 04:23:51;;;;;;;10.45;4.63;;;;;;;13.29;89.98;101330.19;5051489;28;20043;-44
2023/05/17 04:26:19;;;;;;;8.85;4.72;;;;;;;13.48;89.12;101337.34;5051442;28;20021;-44
2023/05/17 04:28:45;;;;;;;11.50;4.50;;;;;;;13.52;88.48;101342.31;5051028;28;20047;-44
2023/05/17 04:31:15;;;;;;;13.10;5.10;;;;;;;13.45;88.20;101351.22;5031690;28;20481;-44
2023/05/17 04:33:41;;;;;;;9.85;4.90;;;;;;;13.52;88.02;101351.19;5050102;28;20040;-46
2023/05/17 04:36:08;;;;;;;8.85;4.47;;;;;;;13.52;87.73;101345.00;5051578;28;20056;-44
2023/05/17 04:38:34;;;;;;;16.15;4.65;;;;;;;13.39;88.23;101346.72;5051291;28;20021;-44
2023/05/17 04:41:05;;;;;;;8.50;5.10;;;;;;;13.26;88.69;101357.47;5051092;28;20056;-44
2023/05/17 04:43:32;;;;;;;10.30;5.22;;;;;;;13.18;88.82;101352.31;5051449;28;20100;-44
2023/05/17 04:45:59;;;;;;;12.80;4.85;;;;;;;13.23;88.20;101359.78;5051646;28;20024;-45
2023/05/17 04:48:26;;;;;;;14.65;4.97;;;;;;;12.98;89.24;101371.16;5051008;28;20052;-44
2023/05/17 04:50:59;;;;;;;11.23;5.32;;;;;;;13.15;88.75;101379.59;5049972;28;20048;-44
2023/05/17 04:53:25;;;;;;;13.32;5.00;;;;;;;13.08;88.93;101359.97;5018183;28;20044;-44
2023/05/17 04:55:51;;;;;;;12.88;5.05;;;;;;;13.01;89.40;101364.56;5050969;28;20055;-43
2023/05/17 04:58:18;;;;;;;12.00;4.82;;;;;;;13.08;89.03;101357.28;5034811;28;20026;-46
2023/05/17 05:00:45;;;;;;;9.63;4.68;;;;;;;13.04;89.68;101356.06;5035232;28;20025;-44
2023/05/17 05:03:11;;;;;;;13.20;5.10;;;;;;;12.91;90.03;101354.22;5036374;28;20417;-47
2023/05/17 05:05:37;;;;;;;10.20;4.38;;;;;;;12.94;88.86;101349.28;5043111;28;20032;-48
2023/05/17 05:08:04;;;;;;;12.68;4.80;;;;;;;12.92;89.40;101362.06;5054803;28;20107;-43
2023/05/17 05:10:30;;;;;;;11.60;5.05;;;;;;;12.78;89.66;101360.44;5042541;28;20381;-45
2023/05/17 05:12:57;;;;;;;9.88;5.13;;;;;;;12.89;88.92;101367.06;5034976;28;20489;-43
2023/05/17 05:15:23;;;;;;;9.98;4.85;;;;;;;12.85;88.65;101361.25;5034745;28;20029;-42
2023/05/17 05:17:49;;;;;;;12.00;5.28;;;;;;;12.71;89.32;101364.97;5035686;28;20115;-44
2023/05/17 05:20:16;;;;;;;9.48;5.32;;;;;;;12.58;90.18;101363.13;5033765;28;20057;-44
2023/05/17 05:22:42;;;;;;;8.98;4.22;;;;;;;12.73;89.71;101367.47;5046782;28;20033;-46
2023/05/17 05:25:09;;;;;;;10.82;5.03;;;;;;;12.70;89.80;101363.31;5042989;28;20085;-44
2023/05/17 05:27:35;;;;;;;8.13;4.90;;;;;;;12.66;89.71;101371.00;5034605;28;20040;-43
2023/05/17 05:30:02;;;;;;;11.50;5.20;;;;;;;12.67;89.70;101371.81;5034457;28;20022;-46
2023/05/17 05:32:28;;;;;;;9.05;4.75;;;;;;;12.67;88.90;101367.25;5034743;28;20386;-43
2023/05/17 05:34:56;;;;;;;9.57;4.72;;;;;;;12.78;88.29;101371.19;5038368;28;20114;-45
2023/05/17 05:37:22;;;;;;;14.73;5.00;;;;;;;12.77;88.40;101366.84;5042167;28;20175;-43
2023/05/17 05:39:48;;;;;;;11.43;4.72;;;;;;;12.81;87.70;101365.38;5029864;28;20051;-43
2023/05/17 05:42:15;;;;;;;9.88;4.68;;;;;;;12.66;88.33;101356.75;5054137;28;20515;-47
2023/05/17 05:44:41;;;;;;;9.88;5.40;;;;;;;12.57;89.29;101358.78;5054221;28;20033;-44
2023/05/17 05:47:07;;;;;;;11.13;4.65;;;;;;;12.67;88.57;101369.13;5054069;28;20159;-43
2023/05/17 05:49:34;;;;;;;10.93;5.13;;;;;;;12.73;88.47;101365.63;5053894;28;20098;-44
2023/05/17 05:52:00;;;;;;;9.98;4.75;;;;;;;12.83;87.65;101363.34;5053869;28;20479;-45
2023/05/17 05:54:26;;;;;;;8.57;4.43;;;;;;;12.74;88.98;101361.88;5053975;28;20564;-48
2023/05/17 05:56:53;;;;;;;12.10;5.10;;;;;;;12.69;89.14;101361.69;5053619;28;20141;-43
2023/05/17 05:59:19;;;;;;;9.38;5.03;;;;;;;12.80;88.75;101357.53;5053740;28;20025;-45
2023/05/17 06:01:46;;;;;;;15.27;5.40;;;;;;;12.88;88.41;101360.00;5054003;28;20021;-43
2023/05/17 06:04:12;;;;;;;8.93;4.70;;;;;;;12.92;87.90;101362.06;5047454;28;20095;-46
2023/05/17 06:06:41;;;;;;;10.32;5.03;;;;;;;12.91;88.19;101371.16;5044078;28;20048;-43
2023/05/17 06:09:10;;;;;;;12.43;5.10;;;;;;;12.94;88.41;101362.72;5053316;28;20072;-43
2023/05/17 06:11:37;;;;;;;14.90;5.20;;;;;;;12.98;88.35;101354.22;5053230;28;20017;-43
2023/05/17 06:14:04;;;;;;;12.77;5.47;;;;;;;12.92;88.71;101363.94;5053484;28;20033;-44
2023/05/17 06:16:30;;;;;;;12.13;5.57;;;;;;;12.86;88.87;101352.16;5053537;28;20021;-44
2023/05/17 06:18:56;;;;;;;10.32;5.35;;;;;;;12.94;89.19;101353.81;5053651;28;20214;-45
2023/05/17 06:21:22;;;;;;;10.15;4.78;;;;;;;13.04;88.75;101345.31;5053527;28;20032;-45
2023/05/17 06:23:48;;;;;;;13.25;5.65;;;;;;;13.08;88.34;101347.38;5053273;28;20504;-44
2023/05/17 06:26:15;;;;;;;12.13;5.30;;;;;;;13.15;87.54;101342.78;5053594;28;20029;-46
2023/05/17 06:28:41;;;;;;;10.63;4.47;;;;;;;13.19;87.23;101344.03;5052969;28;20393;-47
2023/05/17 06:31:07;;;;;;;13.82;5.90;;;;;;;13.11;87.85;101333.53;5052904;28;20047;-45
2023/05/17 06:33:33;;;;;;;9.85;4.50;;;;;;;13.25;87.01;101331.66;5053415;28;20094;-43
2023/05/17 06:36:00;;;;;;;14.20;5.85;;;;;;;13.14;87.76;101333.09;5035798;28;20022;-43
2023/05/17 06:38:26;;;;;;;12.98;6.07;;;;;;;13.11;88.28;101330.84;5047245;28;20028;-45
2023/05/17 06:40:54;;;;;;;9.40;5.22;;;;;;;13.09;87.89;101332.06;5053106;28;20422;-43
2023/05/17 06:43:21;;;;;;;10.82;6.40;;;;;;;13.02;88.65;101333.94;5053379;28;20021;-47
2023/05/17 06:45:47;;;;;;;13.52;7.95;;;;;;;12.98;88.62;101328.16;5052821;28;20430;-44
2023/05/17 06:48:14;;;;;;;13.45;7.43;;;;;;;13.05;88.29;101334.38;5048268;28;20068;-43
2023/05/17 06:50:40;;;;;;;17.52;8.45;;;;;;;12.97;88.89;101334.56;5033337;28;20032;-45
2023/05/17 06:53:06;;;;;;;12.73;8.48;;;;;;;13.09;88.58;101338.25;5033154;28;20025;-44
2023/05/17 06:55:32;;;;;;;13.93;8.88;;;;;;;13.10;88.79;101334.56;5033088;28;20044;-45
2023/05/17 06:57:59;;;;;;;15.07;8.90;;;;;;;13.13;88.64;101330.63;5032701;28;20034;-45
2023/05/17 07:00:25;;;;;;;15.05;8.43;;;;;;;13.19;88.20;101340.53;5043058;28;20503;-44
2023/05/17 07:02:51;;;;;;;13.15;8.02;;;;;;;13.22;87.93;101342.00;5053042;28;20032;-45
2023/05/17 07:05:18;;;;;;;17.48;8.45;;;;;;;13.20;88.02;101344.84;5043001;28;20102;-45
2023/05/17 07:07:44;;;;;;;12.30;8.50;;;;;;;13.16;87.84;101349.84;5032710;28;20032;-47
2023/05/17 07:10:10;;;;;;;13.73;8.20;;;;;;;13.13;87.65;101341.38;5038305;28;20134;-45
2023/05/17 07:12:37;;;;;;;13.50;8.50;;;;;;;13.06;88.11;101348.63;5035075;28;20032;-44
2023/05/17 07:15:04;;;;;;;16.42;8.02;;;;;;;13.10;87.83;101347.16;5051938;28;20032;-44
2023/05/17 07:17:30;;;;;;;19.73;8.90;;;;;;;13.10;88.05;101341.78;5051826;28;20060;-46
2023/05/17 07:19:56;;;;;;;12.52;7.45;;;;;;;12.98;88.30;101354.22;5052377;28;20469;-45
2023/05/17 07:22:23;;;;;;;14.52;7.50;;;;;;;12.98;88.19;101344.28;5052335;28;20037;-44
2023/05/17 07:24:49;;;;;;;12.90;7.05;;;;;;;12.78;88.71;101352.38;5052201;28;20121;-44
2023/05/17 07:27:16;;;;;;;16.30;6.88;;;;;;;12.82;88.82;101355.47;5046009;28;20025;-43
2023/05/17 07:29:42;;;;;;;9.93;5.93;;;;;;;12.85;88.27;101345.13;5031735;28;20114;-46
2023/05/17 07:32:08;;;;;;;11.07;6.47;;;;;;;12.69;88.94;101346.38;5032299;28;20025;-44
2023/05/17 07:34:35;;;;;;;9.90;5.20;;;;;;;12.81;88.38;101351.94;5032232;28;20065;-45
2023/05/17 07:37:02;;;;;;;10.65;6.07;;;;;;;12.78;88.29;101347.00;5036722;28;20621;-45
2023/05/17 07:39:28;;;;;;;8.63;5.70;;;;;;;12.55;89.70;101343.94;5043715;28;20390;-46
2023/05/17 07:41:54;;;;;;;12.85;6.07;;;;;;;12.44;90.74;101340.00;5031840;28;20036;-42
2023/05/17 07:44:21;;;;;;;13.50;5.63;;;;;;;12.56;90.91;101340.22;5032174;28;20033;-43
2023/05/17 07:46:47;;;;;;;12.00;6.00;;;;;;;12.75;90.37;101344.72;5031590;28;20029;-43
2023/05/17 07:49:14;;;;;;;13.32;6.30;;;;;;;12.68;90.11;101333.19;5031718;28;20476;-44
2023/05/17 07:51:40;;;;;;;8.55;5.20;;;;;;;12.67;90.03;101337.72;5032534;28;20439;-43
2023/05/17 07:54:06;;;;;;;8.10;5.35;;;;;;;12.64;90.04;101338.13;5032094;28;20167;-43
2023/05/17 07:56:33;;;;;;;8.90;5.20;;;;;;;12.72;89.44;101334.41;5031966;28;20389;-44
2023/05/17 07:58:59;;;;;;;12.50;6.78;;;;;;;12.68;89.54;101333.19;5031674;28;20029;-42
2023/05/17 08:01:26;;;;;;;13.68;6.13;;;;;;;12.64;89.94;101332.75;5031764;28;20096;-42
2023/05/17 08:03:52;;;;;;;11.40;5.82;;;;;;;12.74;89.45;101335.03;5032402;28;20033;-42
2023/05/17 08:06:19;;;;;;;10.85;5.80;;;;;;;12.68;89.86;101334.00;5041170;28;20026;-41
2023/05/17 08:08:45;;;;;;;10.13;6.07;;;;;;;12.61;90.03;101330.50;5041531;28;20384;-43
2023/05/17 08:11:12;;;;;;;10.63;5.32;;;;;;;12.52;90.62;101333.59;5041337;28;20087;-42
2023/05/17 08:13:38;;;;;;;8.85;5.20;;;;;;;12.61;90.33;101324.31;5032096;28;20125;-44
2023/05/17 08:16:06;;;;;;;9.95;5.30;;;;;;;12.61;90.14;101332.34;5041081;28;20060;-41
2023/05/17 08:18:33;;;;;;;9.60;5.18;;;;;;;12.42;90.70;101336.69;5031309;28;20425;-44
2023/05/17 08:20:59;;;;;;;8.82;5.35;;;;;;;12.51;90.67;101326.56;5031776;28;20060;-43
2023/05/17 08:23:25;;;;;;;12.98;7.03;;;;;;;12.60;90.40;101330.69;5031854;28;20025;-42
2023/05/17 08:25:52;;;;;;;10.63;5.00;;;;;;;12.68;89.91;101330.50;5032778;28;20474;-48
2023/05/17 08:28:18;;;;;;;7.78;4.70;;;;;;;12.49;90.60;101320.56;5041579;28;20075;-42
2023/05/17 08:30:44;;;;;;;8.93;4.10;;;;;;;12.52;90.82;101314.78;5036014;28;20025;-42
2023/05/17 08:33:10;;;;;;;7.22;4.65;;;;;;;12.63;90.64;101316.84;5036130;28;20025;-44
2023/05/17 08:35:37;;;;;;;12.07;5.03;;;;;;;12.61;90.77;101321.63;5037361;28;20037;-43
2023/05/17 08:38:03;;;;;;;8.73;5.25;;;;;;;12.59;90.88;101310.25;5054901;28;20025;-43
2023/05/17 08:40:30;;;;;;;8.70;4.68;;;;;;;12.58;91.13;101309.41;5054948;28;20040;-45
2023/05/17 08:42:57;;;;;;;10.05;4.55;;;;;;;12.49;91.56;101317.88;5055673;28;20116;-44
2023/05/17 08:45:25;;;;;;;10.07;6.07;;;;;;;12.61;90.87;101305.50;5055588;28;20029;-43
2023/05/17 08:47:53;;;;;;;10.15;7.10;;;;;;;12.44;91.86;101313.16;5054817;28;20025;-46
2023/05/17 08:50:19;;;;;;;12.75;6.53;;;;;;;12.57;91.11;101312.31;5055376;28;20032;-47
2023/05/17 08:52:46;;;;;;;8.13;5.35;;;;;;;12.49;91.09;101313.34;5055327;28;20131;-45
2023/05/17 08:55:15;;;;;;;9.30;5.53;;;;;;;12.33;91.85;101305.72;5055224;28;20055;-43
2023/05/17 08:57:42;;;;;;;10.60;5.22;;;;;;;12.60;90.19;101303.81;5054532;28;20546;-44
2023/05/17 09:00:13;;;;;;;9.05;4.88;;;;;;;12.66;89.60;101300.34;5055196;28;20025;-44
2023/05/17 09:02:41;;;;;;;5.55;3.97;;;;;;;12.61;89.28;101310.88;5055360;28;20450;-45
2023/05/17 09:05:09;;;;;;;8.63;4.82;;;;;;;12.52;89.63;101307.56;5055580;28;20445;-46
2023/05/17 09:07:36;;;;;;;5.78;4.30;;;;;;;12.54;89.58;101305.47;5053955;28;20049;-44
2023/05/17 09:10:04;;;;;;;6.85;4.43;;;;;;;12.55;89.45;101295.59;5055148;28;20236;-45
2023/05/17 09:12:36;;;;;;;7.95;5.38;;;;;;;12.63;89.27;101296.19;5054875;28;20381;-44
2023/05/17 09:15:19;;;;;;;7.25;5.30;;;;;;;12.53;89.50;101300.31;5042808;28;20493;-44
2023/05/17 09:18:03;;;;;;;9.27;5.10;;;;;;;12.58;89.55;101295.16;5034320;28;20033;-44
2023/05/17 09:20:33;;;;;;;7.43;4.57;;;;;;;12.52;89.72;101298.69;5034939;28;20071;-43
2023/05/17 09:23:00;;;;;;;5.60;4.68;;;;;;;12.59;89.26;101294.13;5034895;28;20021;-45
2023/05/17 09:25:28;;;;;;;9.50;4.60;;;;;;;12.63;89.29;101296.19;5034734;28;20060;-47
2023/05/17 09:27:59;;;;;;;5.90;4.25;;;;;;;12.59;89.54;101286.06;5034541;28;20036;-43
2023/05/17 09:30:30;;;;;;;7.40;4.10;;;;;;;12.47;90.04;101290.44;5034812;28;20065;-44
2023/05/17 09:32:57;;;;;;;6.38;4.00;;;;;;;12.53;89.47;101286.91;5034384;28;20033;-43
2023/05/17 09:35:30;;;;;;;7.18;4.63;;;;;;;12.49;89.52;101285.66;5036304;28;20033;-43
2023/05/17 09:38:07;;;;;;;7.43;4.50;;;;;;;12.53;89.13;101281.53;5060091;28;20035;-43
2023/05/17 09:40:40;;;;;;;7.90;4.65;;;;;;;12.44;89.03;101280.94;5073759;28;20056;-46
2023/05/17 09:43:07;;;;;;;8.23;5.10;;;;;;;12.31;89.94;101273.69;5057455;28;20043;-47
2023/05/17 09:45:35;;;;;;;7.97;4.82;;;;;;;12.44;89.87;101280.94;5054423;28;20086;-44
2023/05/17 09:48:15;;;;;;;11.00;5.40;;;;;;;12.46;89.44;101281.53;5053794;28;20117;-44
2023/05/17 09:50:50;;;;;;;6.75;4.47;;;;;;;12.34;90.33;101284.03;5038829;28;20036;-43
2023/05/17 09:53:27;;;;;;;11.43;5.78;;;;;;;12.45;90.24;101284.44;5050727;28;20041;-43
2023/05/17 09:56:04;;;;;;;7.78;5.55;;;;;;;12.49;90.29;101286.47;5048904;28;20028;-43
2023/05/17 09:58:36;;;;;;;9.13;6.07;;;;;;;12.50;90.48;101277.41;5034306;28;20082;-43
2023/05/17 10:01:05;;;;;;;6.60;5.22;;;;;;;12.46;90.88;101272.66;5034170;28;20482;-42
2023/05/17 10:03:38;;;;;;;8.57;5.30;;;;;;;12.51;90.51;101270.19;5033998;28;20053;-43
2023/05/17 10:06:09;;;;;;;8.88;6.10;;;;;;;12.56;90.39;101270.38;5034100;28;20381;-45
2023/05/17 10:08:43;;;;;;;12.75;5.75;;;;;;;12.59;90.40;101260.03;5050354;28;20148;-43
2023/05/17 10:11:10;;;;;;;9.20;5.78;;;;;;;12.72;89.72;101263.75;5034054;28;20523;-43
2023/05/17 10:13:43;;;;;;;8.32;5.55;;;;;;;12.77;89.19;101262.09;5036039;28;20120;-46
2023/05/17 10:16:12;;;;;;;9.35;5.68;;;;;;;12.66;89.37;101268.09;5043439;28;20091;-43
2023/05/17 10:18:39;;;;;;;13.05;6.28;;;;;;;12.54;90.36;101265.22;5036087;28;20029;-44
2023/05/17 10:21:07;;;;;;;7.93;5.68;;;;;;;12.64;89.76;101251.34;5033418;28;20045;-44
2023/05/17 10:23:35;;;;;;;7.07;5.03;;;;;;;12.79;88.97;101256.50;5033886;28;20022;-43
2023/05/17 10:26:01;;;;;;;10.52;6.05;;;;;;;12.77;88.87;101255.88;5033456;28;20462;-44
2023/05/17 10:28:29;;;;;;;7.55;5.40;;;;;;;12.84;88.34;101262.91;5033590;28;20048;-45
2023/05/17 10:30:58;;;;;;;7.63;5.10;;;;;;;12.87;88.32;101265.16;5033006;28;20029;-43
2023/05/17 10:33:26;;;;;;;8.25;4.90;;;;;;;12.80;87.58;101267.03;5033335;28;20112;-43
2023/05/17 10:35:55;;;;;;;8.75;4.68;;;;;;;12.78;87.50;101270.97;5033972;28;20052;-43
2023/05/17 10:38:23;;;;;;;10.57;7.05;;;;;;;12.63;88.84;101266.66;5041825;28;20029;-43
2023/05/17 10:40:51;;;;;;;9.63;7.65;;;;;;;12.61;89.27;101268.72;5033319;28;20238;-43
2023/05/17 10:43:19;;;;;;;9.10;6.90;;;;;;;12.60;89.28;101268.91;5033335;28;20386;-45
2023/05/17 10:45:45;;;;;;;9.15;8.00;;;;;;;12.61;89.20;101266.03;5036000;28;20120;-44
2023/05/17 10:48:15;;;;;;;9.60;6.65;;;;;;;12.64;88.79;101262.94;5033588;28;20131;-44
2023/05/17 10:50:46;;;;;;;9.80;6.68;;;;;;;12.63;89.02;101257.78;5033292;28;20053;-43
2023/05/17 10:53:12;;;;;;;9.15;6.90;;;;;;;12.57;89.15;101256.75;5033298;28;20017;-43
2023/05/17 10:55:43;;;;;;;9.45;6.82;;;;;;;12.53;89.54;101255.50;5035758;28;20029;-43
2023/05/17 10:58:16;;;;;;;10.25;7.68;;;;;;;12.50;89.97;101266.69;5032567;28;20026;-43
2023/05/17 11:00:52;;;;;;;10.88;7.32;;;;;;;12.49;89.94;101264.19;5032628;28;20482;-47
2023/05/17 11:03:27;;;;;;;12.23;7.68;;;;;;;12.58;89.45;101258.41;5032875;28;20029;-43
2023/05/17 11:06:12;;;;;;;;;;;;;;;12.61;88.97;101262.53;5033214;28;20025;-43
2023/05/17 11:09:04;;;;;;;10.30;7.57;;;;;;;12.60;88.68;101261.72;5036975;28;20031;-43
2023/05/17 11:11:30;;;;;;;9.43;5.90;;;;;;;12.50;88.72;101257.81;5052851;28;20075;-43
2023/05/17 11:13:58;;;;;;;8.98;6.40;;;;;;;12.51;88.86;101262.13;5040508;28;20027;-44
2023/05/17 11:16:35;;;;;;;10.63;6.30;;;;;;;12.64;87.86;101256.72;5032366;28;20536;-43
2023/05/17 11:19:10;;;;;;;8.30;5.45;;;;;;;12.60;88.01;101256.34;5032601;28;20029;-43
2023/05/17 11:21:45;;;;;;;10.93;6.15;;;;;;;12.63;88.33;101255.91;5032647;28;20478;-43
2023/05/17 11:24:15;;;;;;;10.65;6.93;;;;;;;12.55;89.22;101253.47;5046134;28;20178;-44
2023/05/17 11:26:45;;;;;;;8.48;6.18;;;;;;;12.64;88.65;101262.09;5052084;28;20033;-43